Meteo Giornale » Osservazioni meteo Germania » Altenstadt

ore: 01:20 - Osservazioni Meteo Altenstadt
Lat. 47° 50' N Lon. 10° 52' E Alt. 739 metri s.l.m.

sereno Europe/Berlin

16 °C

Sereno

Temp. 24 Ore

13 °C

29 °C

Nord

3.7 Km/h

Dew point 11 °C

Umidità 72 %

Visibilità  0 Km

Il sole sorge alle ore 05:15

Il sole tramonta alle ore 21:20

Data e Ora Cielo e Fenomeni T °C DP °C Um. % Pres. hPa Vis. km Vento km/h
Oggi h: 01:20 sereno Sereno 16 11 72 1016 0 N 3.7
Oggi h: 00:20 sereno Sereno 17 11 67 1016 0 N 3.7
Ieri h: 23:20 sereno Sereno 19 11 59 1017 0 N 0
Ieri h: 22:20 sereno Sereno 21 10 49 1017 0 N 3.7
Ieri h: 21:20 sereno Sereno 23 10 43 1016 0 NE 7.4
Ieri h: 20:20 nuvoloso Nuvoloso 26 10 36 1016 10 E 9.3
Ieri h: 19:20 nuvoloso Nuvoloso 27 10 34 1016 10 E/NE 14.8
Ieri h: 18:20 nuvoloso Nuvoloso 28 11 34 1016 10 NE 16.7
Ieri h: 17:20 nuvoloso Nuvoloso 29 9 28 1016 10 N 13
Ieri h: 16:20 poco_nuvoloso Poco Nuvoloso 29 10 30 1016 10 N/NE 16.7
Ieri h: 15:20 poco_nuvoloso Poco Nuvoloso 29 10 30 1016 10 N 14.8
Ieri h: 14:20 poco_nuvoloso Poco Nuvoloso 28 10 32 1017 10 E/SE 13
Ieri h: 13:20 poco_nuvoloso Poco Nuvoloso 28 10 32 1017 10 N 5.5
Ieri h: 12:20 poco_nuvoloso Poco Nuvoloso 28 9 30 1017 10 N/NO 13
Ieri h: 11:20 poco_nuvoloso Poco Nuvoloso 27 10 34 1017 10 N 5.5
Ieri h: 10:20 poco_nuvoloso Poco Nuvoloso 26 10 36 1017 10 O 7.4
Ieri h: 09:20 poco_nuvoloso Poco Nuvoloso 23 14 56 1017 10 N 5.5
Ieri h: 08:20 poco_nuvoloso Poco Nuvoloso 19 13 68 1017 10 N 3.7
Ieri h: 07:20 poco_nuvoloso Poco Nuvoloso 16 11 72 1016 10 N 3.7
Ieri h: 06:20 poco_nuvoloso Poco Nuvoloso 14 10 76 1016 10 N 5.5
Ieri h: 05:20 poco_nuvoloso Poco Nuvoloso 13 11 87 1016 10 N 5.5
Ieri h: 04:20 sereno Sereno 14 11 82 1016 0 N 5.5
Ieri h: 03:20 sereno Sereno 14 11 82 1016 0 N 5.5
Ieri h: 02:20 sereno Sereno 15 10 72 1016 0 SO 9.3